sensor_id;sensor_type;location;lat;lon;timestamp;P1;durP1;ratioP1;P2;durP2;ratioP2
66593;SDS011;53450;42.584;23.366;2023-04-24T00:00:03;44.17;;;15.20;;
66593;SDS011;53450;42.584;23.366;2023-04-24T00:02:36;23.02;;;8.30;;
66593;SDS011;53450;42.584;23.366;2023-04-24T00:05:05;36.03;;;11.75;;
66593;SDS011;53450;42.584;23.366;2023-04-24T00:07:32;29.08;;;10.57;;
66593;SDS011;53450;42.584;23.366;2023-04-24T00:09:58;26.05;;;9.73;;
66593;SDS011;53450;42.584;23.366;2023-04-24T00:12:23;27.70;;;11.43;;
66593;SDS011;53450;42.584;23.366;2023-04-24T00:14:50;61.75;;;21.98;;
66593;SDS011;53450;42.584;23.366;2023-04-24T00:17:16;69.30;;;23.35;;
66593;SDS011;53450;42.584;23.366;2023-04-24T00:19:45;43.95;;;14.20;;
66593;SDS011;53450;42.584;23.366;2023-04-24T00:22:11;14.35;;;6.30;;
66593;SDS011;53450;42.584;23.366;2023-04-24T00:24:38;12.85;;;6.40;;
66593;SDS011;53450;42.584;23.366;2023-04-24T00:27:04;10.70;;;6.80;;
66593;SDS011;53450;42.584;23.366;2023-04-24T00:29:30;9.80;;;5.97;;
66593;SDS011;53450;42.584;23.366;2023-04-24T00:32:21;24.70;;;8.32;;
66593;SDS011;53450;42.584;23.366;2023-04-24T00:35:12;9.43;;;5.53;;
66593;SDS011;53450;42.584;23.366;2023-04-24T00:37:38;13.57;;;6.90;;
66593;SDS011;53450;42.584;23.366;2023-04-24T00:40:03;10.18;;;5.53;;
66593;SDS011;53450;42.584;23.366;2023-04-24T00:42:31;8.40;;;5.47;;
66593;SDS011;53450;42.584;23.366;2023-04-24T00:44:56;5.40;;;4.90;;
66593;SDS011;53450;42.584;23.366;2023-04-24T00:47:23;5.25;;;4.68;;
66593;SDS011;53450;42.584;23.366;2023-04-24T00:49:50;5.55;;;4.93;;
66593;SDS011;53450;42.584;23.366;2023-04-24T00:52:16;10.10;;;5.40;;
66593;SDS011;53450;42.584;23.366;2023-04-24T00:54:45;4.88;;;4.40;;
66593;SDS011;53450;42.584;23.366;2023-04-24T00:57:12;6.35;;;5.03;;
66593;SDS011;53450;42.584;23.366;2023-04-24T00:59:40;9.35;;;4.70;;
66593;SDS011;53450;42.584;23.366;2023-04-24T01:02:07;7.05;;;4.43;;
66593;SDS011;53450;42.584;23.366;2023-04-24T01:04:36;6.38;;;5.45;;
66593;SDS011;53450;42.584;23.366;2023-04-24T01:07:03;7.85;;;4.93;;
66593;SDS011;53450;42.584;23.366;2023-04-24T01:09:35;6.18;;;5.57;;
66593;SDS011;53450;42.584;23.366;2023-04-24T01:12:02;8.38;;;5.93;;
66593;SDS011;53450;42.584;23.366;2023-04-24T01:14:28;7.85;;;5.53;;
66593;SDS011;53450;42.584;23.366;2023-04-24T01:16:53;9.77;;;6.05;;
66593;SDS011;53450;42.584;23.366;2023-04-24T01:19:20;9.60;;;5.40;;
66593;SDS011;53450;42.584;23.366;2023-04-24T01:21:45;7.72;;;5.53;;
66593;SDS011;53450;42.584;23.366;2023-04-24T01:24:16;8.30;;;5.28;;
66593;SDS011;53450;42.584;23.366;2023-04-24T01:26:44;9.60;;;5.13;;
66593;SDS011;53450;42.584;23.366;2023-04-24T01:29:10;8.05;;;5.47;;
66593;SDS011;53450;42.584;23.366;2023-04-24T01:31:36;6.43;;;5.80;;
66593;SDS011;53450;42.584;23.366;2023-04-24T01:34:03;7.60;;;5.93;;
66593;SDS011;53450;42.584;23.366;2023-04-24T01:36:29;7.63;;;5.47;;
66593;SDS011;53450;42.584;23.366;2023-04-24T01:38:56;10.80;;;5.90;;
66593;SDS011;53450;42.584;23.366;2023-04-24T01:41:24;7.35;;;5.45;;
66593;SDS011;53450;42.584;23.366;2023-04-24T01:43:50;7.18;;;5.32;;
66593;SDS011;53450;42.584;23.366;2023-04-24T01:46:18;13.30;;;5.40;;
66593;SDS011;53450;42.584;23.366;2023-04-24T01:48:44;6.50;;;5.22;;
66593;SDS011;53450;42.584;23.366;2023-04-24T01:51:10;6.28;;;5.70;;
66593;SDS011;53450;42.584;23.366;2023-04-24T01:54:01;8.90;;;6.20;;
66593;SDS011;53450;42.584;23.366;2023-04-24T01:56:52;6.80;;;5.95;;
66593;SDS011;53450;42.584;23.366;2023-04-24T01:59:42;7.82;;;6.03;;
66593;SDS011;53450;42.584;23.366;2023-04-24T02:02:08;7.63;;;6.35;;
66593;SDS011;53450;42.584;23.366;2023-04-24T02:04:34;7.43;;;5.85;;
66593;SDS011;53450;42.584;23.366;2023-04-24T02:07:00;6.88;;;5.78;;
66593;SDS011;53450;42.584;23.366;2023-04-24T02:09:25;8.70;;;5.55;;
66593;SDS011;53450;42.584;23.366;2023-04-24T02:11:51;13.75;;;6.57;;
66593;SDS011;53450;42.584;23.366;2023-04-24T02:14:17;9.75;;;6.32;;
66593;SDS011;53450;42.584;23.366;2023-04-24T02:16:43;6.93;;;5.65;;
66593;SDS011;53450;42.584;23.366;2023-04-24T02:19:09;12.75;;;6.20;;
66593;SDS011;53450;42.584;23.366;2023-04-24T02:21:35;10.95;;;6.57;;
66593;SDS011;53450;42.584;23.366;2023-04-24T02:24:01;9.77;;;6.43;;
66593;SDS011;53450;42.584;23.366;2023-04-24T02:26:27;11.05;;;6.80;;
66593;SDS011;53450;42.584;23.366;2023-04-24T02:28:52;7.80;;;6.50;;
66593;SDS011;53450;42.584;23.366;2023-04-24T02:31:19;10.25;;;6.85;;
66593;SDS011;53450;42.584;23.366;2023-04-24T02:33:46;6.68;;;5.97;;
66593;SDS011;53450;42.584;23.366;2023-04-24T02:36:12;7.88;;;6.35;;
66593;SDS011;53450;42.584;23.366;2023-04-24T02:38:38;9.32;;;7.00;;
66593;SDS011;53450;42.584;23.366;2023-04-24T02:41:06;11.02;;;8.43;;
66593;SDS011;53450;42.584;23.366;2023-04-24T02:43:32;8.88;;;7.45;;
66593;SDS011;53450;42.584;23.366;2023-04-24T02:45:58;9.35;;;7.88;;
66593;SDS011;53450;42.584;23.366;2023-04-24T02:48:25;10.52;;;8.00;;
66593;SDS011;53450;42.584;23.366;2023-04-24T02:50:50;10.10;;;7.90;;
66593;SDS011;53450;42.584;23.366;2023-04-24T02:53:16;10.13;;;7.28;;
66593;SDS011;53450;42.584;23.366;2023-04-24T02:55:42;10.73;;;8.48;;
66593;SDS011;53450;42.584;23.366;2023-04-24T02:58:08;10.70;;;8.05;;
66593;SDS011;53450;42.584;23.366;2023-04-24T03:00:34;11.07;;;8.80;;
66593;SDS011;53450;42.584;23.366;2023-04-24T03:03:02;11.50;;;8.65;;
66593;SDS011;53450;42.584;23.366;2023-04-24T03:05:28;10.77;;;9.18;;
66593;SDS011;53450;42.584;23.366;2023-04-24T03:07:56;10.00;;;8.00;;
66593;SDS011;53450;42.584;23.366;2023-04-24T03:10:22;11.10;;;8.45;;
66593;SDS011;53450;42.584;23.366;2023-04-24T03:12:50;11.13;;;7.60;;
66593;SDS011;53450;42.584;23.366;2023-04-24T03:15:17;13.57;;;8.32;;
66593;SDS011;53450;42.584;23.366;2023-04-24T03:17:43;9.55;;;7.80;;
66593;SDS011;53450;42.584;23.366;2023-04-24T03:20:09;13.07;;;8.70;;
66593;SDS011;53450;42.584;23.366;2023-04-24T03:22:35;15.38;;;9.07;;
66593;SDS011;53450;42.584;23.366;2023-04-24T03:25:05;14.48;;;8.43;;
66593;SDS011;53450;42.584;23.366;2023-04-24T03:27:31;16.20;;;8.63;;
66593;SDS011;53450;42.584;23.366;2023-04-24T03:30:00;10.40;;;8.40;;
66593;SDS011;53450;42.584;23.366;2023-04-24T03:32:37;11.18;;;9.07;;
66593;SDS011;53450;42.584;23.366;2023-04-24T03:35:07;9.95;;;8.80;;
66593;SDS011;53450;42.584;23.366;2023-04-24T03:37:33;13.30;;;9.88;;
66593;SDS011;53450;42.584;23.366;2023-04-24T03:40:25;18.65;;;9.73;;
66593;SDS011;53450;42.584;23.366;2023-04-24T03:42:51;16.00;;;9.45;;
66593;SDS011;53450;42.584;23.366;2023-04-24T03:45:18;12.60;;;9.63;;
66593;SDS011;53450;42.584;23.366;2023-04-24T03:47:47;16.50;;;10.85;;
66593;SDS011;53450;42.584;23.366;2023-04-24T03:50:37;12.70;;;8.70;;
66593;SDS011;53450;42.584;23.366;2023-04-24T03:53:04;9.57;;;7.55;;
66593;SDS011;53450;42.584;23.366;2023-04-24T03:55:36;9.15;;;7.28;;
66593;SDS011;53450;42.584;23.366;2023-04-24T03:58:02;9.75;;;7.35;;
66593;SDS011;53450;42.584;23.366;2023-04-24T04:00:28;11.38;;;8.10;;
66593;SDS011;53450;42.584;23.366;2023-04-24T04:03:13;9.52;;;7.85;;
66593;SDS011;53450;42.584;23.366;2023-04-24T04:05:40;14.85;;;8.80;;
66593;SDS011;53450;42.584;23.366;2023-04-24T04:08:06;10.68;;;7.78;;
66593;SDS011;53450;42.584;23.366;2023-04-24T04:10:32;13.02;;;8.98;;
66593;SDS011;53450;42.584;23.366;2023-04-24T04:12:59;16.65;;;8.23;;
66593;SDS011;53450;42.584;23.366;2023-04-24T04:15:26;16.52;;;12.50;;
66593;SDS011;53450;42.584;23.366;2023-04-24T04:17:51;20.02;;;14.45;;
66593;SDS011;53450;42.584;23.366;2023-04-24T04:20:23;20.70;;;14.75;;
66593;SDS011;53450;42.584;23.366;2023-04-24T04:22:50;22.70;;;14.07;;
66593;SDS011;53450;42.584;23.366;2023-04-24T04:25:22;11.05;;;9.43;;
66593;SDS011;53450;42.584;23.366;2023-04-24T04:27:48;12.80;;;10.15;;
66593;SDS011;53450;42.584;23.366;2023-04-24T04:30:14;23.73;;;12.23;;
66593;SDS011;53450;42.584;23.366;2023-04-24T04:32:47;14.90;;;11.30;;
66593;SDS011;53450;42.584;23.366;2023-04-24T04:35:13;12.00;;;10.05;;
66593;SDS011;53450;42.584;23.366;2023-04-24T04:37:39;9.75;;;8.75;;
66593;SDS011;53450;42.584;23.366;2023-04-24T04:40:16;11.15;;;7.95;;
66593;SDS011;53450;42.584;23.366;2023-04-24T04:42:49;13.95;;;8.02;;
66593;SDS011;53450;42.584;23.366;2023-04-24T04:45:19;9.05;;;7.35;;
66593;SDS011;53450;42.584;23.366;2023-04-24T04:48:05;14.50;;;10.02;;
66593;SDS011;53450;42.584;23.366;2023-04-24T04:50:35;10.63;;;8.10;;
66593;SDS011;53450;42.584;23.366;2023-04-24T04:53:05;10.43;;;7.65;;
66593;SDS011;53450;42.584;23.366;2023-04-24T04:55:35;13.00;;;8.63;;
66593;SDS011;53450;42.584;23.366;2023-04-24T04:58:09;18.80;;;11.13;;
66593;SDS011;53450;42.584;23.366;2023-04-24T05:00:35;12.82;;;10.40;;
66593;SDS011;53450;42.584;23.366;2023-04-24T05:03:10;14.10;;;10.60;;
66593;SDS011;53450;42.584;23.366;2023-04-24T05:05:36;32.95;;;10.50;;
66593;SDS011;53450;42.584;23.366;2023-04-24T05:08:07;16.40;;;8.10;;
66593;SDS011;53450;42.584;23.366;2023-04-24T05:10:33;20.00;;;14.52;;
66593;SDS011;53450;42.584;23.366;2023-04-24T05:13:02;14.75;;;9.13;;
66593;SDS011;53450;42.584;23.366;2023-04-24T05:15:30;16.05;;;9.50;;
66593;SDS011;53450;42.584;23.366;2023-04-24T05:18:20;9.32;;;7.63;;
66593;SDS011;53450;42.584;23.366;2023-04-24T05:20:46;12.35;;;7.97;;
66593;SDS011;53450;42.584;23.366;2023-04-24T05:23:12;10.68;;;7.60;;
66593;SDS011;53450;42.584;23.366;2023-04-24T05:25:40;8.93;;;7.93;;
66593;SDS011;53450;42.584;23.366;2023-04-24T05:28:10;14.25;;;8.43;;
66593;SDS011;53450;42.584;23.366;2023-04-24T05:30:35;13.32;;;9.77;;
66593;SDS011;53450;42.584;23.366;2023-04-24T05:33:26;12.65;;;8.60;;
66593;SDS011;53450;42.584;23.366;2023-04-24T05:35:52;17.30;;;12.07;;
66593;SDS011;53450;42.584;23.366;2023-04-24T05:38:18;17.10;;;8.70;;
66593;SDS011;53450;42.584;23.366;2023-04-24T05:40:45;14.35;;;8.80;;
66593;SDS011;53450;42.584;23.366;2023-04-24T05:43:11;14.63;;;9.95;;
66593;SDS011;53450;42.584;23.366;2023-04-24T05:45:38;16.27;;;10.68;;
66593;SDS011;53450;42.584;23.366;2023-04-24T05:48:04;17.13;;;10.23;;
66593;SDS011;53450;42.584;23.366;2023-04-24T05:50:29;17.38;;;9.45;;
66593;SDS011;53450;42.584;23.366;2023-04-24T05:52:55;16.33;;;9.65;;
66593;SDS011;53450;42.584;23.366;2023-04-24T05:55:27;12.43;;;7.90;;
66593;SDS011;53450;42.584;23.366;2023-04-24T05:57:53;10.40;;;7.72;;
66593;SDS011;53450;42.584;23.366;2023-04-24T06:00:19;12.35;;;7.60;;
66593;SDS011;53450;42.584;23.366;2023-04-24T06:02:54;8.65;;;6.70;;
66593;SDS011;53450;42.584;23.366;2023-04-24T06:05:20;10.50;;;6.95;;
66593;SDS011;53450;42.584;23.366;2023-04-24T06:07:46;11.68;;;6.85;;
66593;SDS011;53450;42.584;23.366;2023-04-24T06:10:13;8.40;;;6.85;;
66593;SDS011;53450;42.584;23.366;2023-04-24T06:12:41;10.85;;;6.97;;
66593;SDS011;53450;42.584;23.366;2023-04-24T06:15:13;12.95;;;6.30;;
66593;SDS011;53450;42.584;23.366;2023-04-24T06:18:03;12.82;;;6.40;;
66593;SDS011;53450;42.584;23.366;2023-04-24T06:20:29;10.43;;;5.50;;
66593;SDS011;53450;42.584;23.366;2023-04-24T06:22:55;7.38;;;5.90;;
66593;SDS011;53450;42.584;23.366;2023-04-24T06:25:21;6.00;;;5.40;;
66593;SDS011;53450;42.584;23.366;2023-04-24T06:27:46;7.13;;;6.18;;
66593;SDS011;53450;42.584;23.366;2023-04-24T06:30:15;9.38;;;5.90;;
66593;SDS011;53450;42.584;23.366;2023-04-24T06:32:40;8.85;;;6.35;;
66593;SDS011;53450;42.584;23.366;2023-04-24T06:35:06;8.90;;;5.75;;
66593;SDS011;53450;42.584;23.366;2023-04-24T06:37:33;9.52;;;6.88;;
66593;SDS011;53450;42.584;23.366;2023-04-24T06:39:58;8.77;;;6.78;;
66593;SDS011;53450;42.584;23.366;2023-04-24T06:42:24;7.88;;;6.65;;
66593;SDS011;53450;42.584;23.366;2023-04-24T06:44:50;8.02;;;6.03;;
66593;SDS011;53450;42.584;23.366;2023-04-24T06:47:15;10.35;;;6.10;;
66593;SDS011;53450;42.584;23.366;2023-04-24T06:49:41;8.45;;;5.65;;
66593;SDS011;53450;42.584;23.366;2023-04-24T06:52:06;9.95;;;6.07;;
66593;SDS011;53450;42.584;23.366;2023-04-24T06:54:33;11.07;;;8.15;;
66593;SDS011;53450;42.584;23.366;2023-04-24T06:56:59;10.93;;;6.00;;
66593;SDS011;53450;42.584;23.366;2023-04-24T06:59:28;8.95;;;7.05;;
66593;SDS011;53450;42.584;23.366;2023-04-24T07:01:55;11.18;;;7.43;;
66593;SDS011;53450;42.584;23.366;2023-04-24T07:04:21;7.47;;;6.22;;
66593;SDS011;53450;42.584;23.366;2023-04-24T07:06:47;7.50;;;6.05;;
66593;SDS011;53450;42.584;23.366;2023-04-24T07:09:14;12.27;;;6.50;;
66593;SDS011;53450;42.584;23.366;2023-04-24T07:11:41;9.55;;;6.63;;
66593;SDS011;53450;42.584;23.366;2023-04-24T07:14:07;12.70;;;6.63;;
66593;SDS011;53450;42.584;23.366;2023-04-24T07:16:33;10.20;;;7.57;;
66593;SDS011;53450;42.584;23.366;2023-04-24T07:18:59;10.55;;;7.15;;
66593;SDS011;53450;42.584;23.366;2023-04-24T07:21:25;15.55;;;7.70;;
66593;SDS011;53450;42.584;23.366;2023-04-24T07:23:52;13.07;;;7.55;;
66593;SDS011;53450;42.584;23.366;2023-04-24T07:26:18;13.75;;;7.70;;
66593;SDS011;53450;42.584;23.366;2023-04-24T07:28:45;8.13;;;6.00;;
66593;SDS011;53450;42.584;23.366;2023-04-24T07:31:11;16.65;;;7.35;;
66593;SDS011;53450;42.584;23.366;2023-04-24T07:33:37;13.10;;;6.82;;
66593;SDS011;53450;42.584;23.366;2023-04-24T07:36:03;15.20;;;7.55;;
66593;SDS011;53450;42.584;23.366;2023-04-24T07:38:29;6.97;;;6.38;;
66593;SDS011;53450;42.584;23.366;2023-04-24T07:40:55;9.30;;;7.05;;
66593;SDS011;53450;42.584;23.366;2023-04-24T07:43:21;10.98;;;7.60;;
66593;SDS011;53450;42.584;23.366;2023-04-24T07:45:49;12.23;;;6.28;;
66593;SDS011;53450;42.584;23.366;2023-04-24T07:48:16;9.57;;;6.32;;
66593;SDS011;53450;42.584;23.366;2023-04-24T07:50:43;26.30;;;7.55;;
66593;SDS011;53450;42.584;23.366;2023-04-24T07:53:09;15.63;;;7.30;;
66593;SDS011;53450;42.584;23.366;2023-04-24T07:55:35;19.23;;;7.60;;
66593;SDS011;53450;42.584;23.366;2023-04-24T07:58:00;13.48;;;6.65;;
66593;SDS011;53450;42.584;23.366;2023-04-24T08:00:26;12.50;;;7.00;;
66593;SDS011;53450;42.584;23.366;2023-04-24T08:02:52;18.30;;;7.63;;
66593;SDS011;53450;42.584;23.366;2023-04-24T08:05:17;19.05;;;6.50;;
66593;SDS011;53450;42.584;23.366;2023-04-24T08:07:44;6.70;;;5.93;;
66593;SDS011;53450;42.584;23.366;2023-04-24T08:10:13;14.93;;;6.38;;
66593;SDS011;53450;42.584;23.366;2023-04-24T08:12:40;10.05;;;5.85;;
66593;SDS011;53450;42.584;23.366;2023-04-24T08:15:06;16.05;;;6.78;;
66593;SDS011;53450;42.584;23.366;2023-04-24T08:17:33;11.20;;;6.93;;
66593;SDS011;53450;42.584;23.366;2023-04-24T08:20:00;16.65;;;7.60;;
66593;SDS011;53450;42.584;23.366;2023-04-24T08:22:27;12.20;;;7.32;;
66593;SDS011;53450;42.584;23.366;2023-04-24T08:24:53;13.15;;;7.90;;
66593;SDS011;53450;42.584;23.366;2023-04-24T08:27:19;13.40;;;9.48;;
66593;SDS011;53450;42.584;23.366;2023-04-24T08:29:45;8.23;;;6.32;;
66593;SDS011;53450;42.584;23.366;2023-04-24T08:32:14;14.32;;;6.43;;
66593;SDS011;53450;42.584;23.366;2023-04-24T08:34:40;15.55;;;6.15;;
66593;SDS011;53450;42.584;23.366;2023-04-24T08:37:06;15.90;;;7.13;;
66593;SDS011;53450;42.584;23.366;2023-04-24T08:39:31;13.15;;;6.78;;
66593;SDS011;53450;42.584;23.366;2023-04-24T08:41:57;16.10;;;6.93;;
66593;SDS011;53450;42.584;23.366;2023-04-24T08:44:31;12.63;;;6.30;;
66593;SDS011;53450;42.584;23.366;2023-04-24T08:46:57;13.23;;;6.63;;
66593;SDS011;53450;42.584;23.366;2023-04-24T08:49:23;8.07;;;5.95;;
66593;SDS011;53450;42.584;23.366;2023-04-24T08:51:51;12.05;;;5.95;;
66593;SDS011;53450;42.584;23.366;2023-04-24T08:54:18;9.38;;;6.53;;
66593;SDS011;53450;42.584;23.366;2023-04-24T08:56:44;13.82;;;6.32;;
66593;SDS011;53450;42.584;23.366;2023-04-24T08:59:13;10.73;;;6.85;;
66593;SDS011;53450;42.584;23.366;2023-04-24T09:01:40;10.02;;;6.30;;
66593;SDS011;53450;42.584;23.366;2023-04-24T09:04:07;11.70;;;5.85;;
66593;SDS011;53450;42.584;23.366;2023-04-24T09:06:35;9.98;;;5.85;;
66593;SDS011;53450;42.584;23.366;2023-04-24T09:09:02;14.52;;;6.18;;
66593;SDS011;53450;42.584;23.366;2023-04-24T09:11:58;11.85;;;5.80;;
66593;SDS011;53450;42.584;23.366;2023-04-24T09:14:25;9.00;;;6.72;;
66593;SDS011;53450;42.584;23.366;2023-04-24T09:16:51;12.30;;;5.68;;
66593;SDS011;53450;42.584;23.366;2023-04-24T09:19:17;8.10;;;5.55;;
66593;SDS011;53450;42.584;23.366;2023-04-24T09:21:45;11.52;;;5.32;;
66593;SDS011;53450;42.584;23.366;2023-04-24T09:24:15;6.78;;;5.32;;
66593;SDS011;53450;42.584;23.366;2023-04-24T09:26:43;7.15;;;4.43;;
66593;SDS011;53450;42.584;23.366;2023-04-24T09:29:13;9.30;;;5.00;;
66593;SDS011;53450;42.584;23.366;2023-04-24T09:31:42;8.88;;;4.95;;
66593;SDS011;53450;42.584;23.366;2023-04-24T09:34:09;16.38;;;6.13;;
66593;SDS011;53450;42.584;23.366;2023-04-24T09:36:38;9.25;;;4.70;;
66593;SDS011;53450;42.584;23.366;2023-04-24T09:39:06;10.63;;;4.88;;
66593;SDS011;53450;42.584;23.366;2023-04-24T09:41:44;6.03;;;4.40;;
66593;SDS011;53450;42.584;23.366;2023-04-24T09:44:13;8.75;;;4.93;;
66593;SDS011;53450;42.584;23.366;2023-04-24T09:46:39;8.65;;;4.88;;
66593;SDS011;53450;42.584;23.366;2023-04-24T09:49:09;5.82;;;4.40;;
66593;SDS011;53450;42.584;23.366;2023-04-24T09:51:38;9.07;;;4.55;;
66593;SDS011;53450;42.584;23.366;2023-04-24T09:54:04;9.02;;;4.78;;
66593;SDS011;53450;42.584;23.366;2023-04-24T09:56:41;4.47;;;4.07;;
66593;SDS011;53450;42.584;23.366;2023-04-24T09:59:09;8.98;;;4.10;;
66593;SDS011;53450;42.584;23.366;2023-04-24T10:01:34;6.80;;;4.05;;
66593;SDS011;53450;42.584;23.366;2023-04-24T14:06:22;8.85;;;5.28;;
66593;SDS011;53450;42.584;23.366;2023-04-24T14:08:49;6.72;;;5.68;;
66593;SDS011;53450;42.584;23.366;2023-04-24T14:11:15;29.83;;;19.55;;
66593;SDS011;53450;42.584;23.366;2023-04-24T14:13:42;6.93;;;5.07;;
66593;SDS011;53450;42.584;23.366;2023-04-24T14:16:08;5.60;;;4.35;;
66593;SDS011;53450;42.584;23.366;2023-04-24T14:18:59;3.80;;;3.40;;
66593;SDS011;53450;42.584;23.366;2023-04-24T14:21:25;4.82;;;4.00;;
66593;SDS011;53450;42.584;23.366;2023-04-24T14:23:51;4.32;;;3.90;;
66593;SDS011;53450;42.584;23.366;2023-04-24T14:26:16;13.70;;;3.33;;
66593;SDS011;53450;42.584;23.366;2023-04-24T14:28:42;4.05;;;3.60;;
66593;SDS011;53450;42.584;23.366;2023-04-24T14:31:08;3.78;;;3.45;;
66593;SDS011;53450;42.584;23.366;2023-04-24T14:33:34;8.07;;;3.70;;
66593;SDS011;53450;42.584;23.366;2023-04-24T14:36:00;6.18;;;3.88;;
66593;SDS011;53450;42.584;23.366;2023-04-24T14:38:27;6.07;;;3.90;;
66593;SDS011;53450;42.584;23.366;2023-04-24T14:40:53;5.57;;;3.72;;
66593;SDS011;53450;42.584;23.366;2023-04-24T14:43:19;5.45;;;3.97;;
66593;SDS011;53450;42.584;23.366;2023-04-24T14:45:47;6.45;;;3.95;;
66593;SDS011;53450;42.584;23.366;2023-04-24T14:48:13;7.60;;;4.22;;
66593;SDS011;53450;42.584;23.366;2023-04-24T14:50:39;5.20;;;3.75;;
66593;SDS011;53450;42.584;23.366;2023-04-24T14:53:08;4.93;;;4.10;;
66593;SDS011;53450;42.584;23.366;2023-04-24T14:55:33;5.22;;;4.50;;
66593;SDS011;53450;42.584;23.366;2023-04-24T14:58:01;4.95;;;3.78;;
66593;SDS011;53450;42.584;23.366;2023-04-24T15:00:27;5.13;;;4.13;;
66593;SDS011;53450;42.584;23.366;2023-04-24T15:02:53;4.75;;;4.18;;
66593;SDS011;53450;42.584;23.366;2023-04-24T15:05:20;5.90;;;4.30;;
66593;SDS011;53450;42.584;23.366;2023-04-24T15:07:45;5.05;;;3.95;;
66593;SDS011;53450;42.584;23.366;2023-04-24T15:10:11;3.97;;;3.53;;
66593;SDS011;53450;42.584;23.366;2023-04-24T15:12:37;6.72;;;4.43;;
66593;SDS011;53450;42.584;23.366;2023-04-24T15:15:02;4.97;;;3.80;;
66593;SDS011;53450;42.584;23.366;2023-04-24T15:17:28;7.63;;;4.32;;
66593;SDS011;53450;42.584;23.366;2023-04-24T15:19:54;5.07;;;4.00;;
66593;SDS011;53450;42.584;23.366;2023-04-24T15:22:20;4.50;;;4.10;;
66593;SDS011;53450;42.584;23.366;2023-04-24T15:24:46;6.68;;;4.45;;
66593;SDS011;53450;42.584;23.366;2023-04-24T15:27:14;18.85;;;9.75;;
66593;SDS011;53450;42.584;23.366;2023-04-24T15:29:39;16.08;;;8.95;;
66593;SDS011;53450;42.584;23.366;2023-04-24T15:32:05;12.70;;;6.63;;
66593;SDS011;53450;42.584;23.366;2023-04-24T15:34:31;15.50;;;9.20;;
66593;SDS011;53450;42.584;23.366;2023-04-24T15:36:59;13.85;;;9.10;;
66593;SDS011;53450;42.584;23.366;2023-04-24T15:39:25;11.63;;;7.38;;
66593;SDS011;53450;42.584;23.366;2023-04-24T15:41:54;14.50;;;5.72;;
66593;SDS011;53450;42.584;23.366;2023-04-24T15:44:20;8.27;;;6.75;;
66593;SDS011;53450;42.584;23.366;2023-04-24T15:46:46;13.15;;;7.00;;
66593;SDS011;53450;42.584;23.366;2023-04-24T15:49:13;9.65;;;6.05;;
66593;SDS011;53450;42.584;23.366;2023-04-24T15:51:38;8.52;;;6.20;;
66593;SDS011;53450;42.584;23.366;2023-04-24T15:54:04;9.70;;;5.60;;
66593;SDS011;53450;42.584;23.366;2023-04-24T15:56:30;9.60;;;5.95;;
66593;SDS011;53450;42.584;23.366;2023-04-24T15:58:56;5.93;;;5.35;;
66593;SDS011;53450;42.584;23.366;2023-04-24T16:01:22;12.13;;;6.15;;
66593;SDS011;53450;42.584;23.366;2023-04-24T16:03:48;7.32;;;5.30;;
66593;SDS011;53450;42.584;23.366;2023-04-24T16:06:13;14.38;;;8.48;;
66593;SDS011;53450;42.584;23.366;2023-04-24T16:08:39;21.98;;;13.52;;
66593;SDS011;53450;42.584;23.366;2023-04-24T16:11:05;20.23;;;12.90;;
66593;SDS011;53450;42.584;23.366;2023-04-24T16:13:31;21.50;;;13.60;;
66593;SDS011;53450;42.584;23.366;2023-04-24T16:15:58;29.20;;;17.30;;
66593;SDS011;53450;42.584;23.366;2023-04-24T16:18:30;19.60;;;11.75;;
66593;SDS011;53450;42.584;23.366;2023-04-24T16:20:55;11.15;;;7.68;;
66593;SDS011;53450;42.584;23.366;2023-04-24T16:23:21;14.63;;;7.18;;
66593;SDS011;53450;42.584;23.366;2023-04-24T16:25:46;15.27;;;11.43;;
66593;SDS011;53450;42.584;23.366;2023-04-24T16:28:12;25.85;;;15.77;;
66593;SDS011;53450;42.584;23.366;2023-04-24T16:30:42;14.88;;;9.50;;
66593;SDS011;53450;42.584;23.366;2023-04-24T16:33:07;13.45;;;10.60;;
66593;SDS011;53450;42.584;23.366;2023-04-24T16:35:37;12.65;;;7.07;;
66593;SDS011;53450;42.584;23.366;2023-04-24T16:38:03;11.93;;;6.65;;
66593;SDS011;53450;42.584;23.366;2023-04-24T16:40:29;10.30;;;5.90;;
66593;SDS011;53450;42.584;23.366;2023-04-24T16:42:54;9.00;;;8.10;;
66593;SDS011;53450;42.584;23.366;2023-04-24T16:45:20;21.95;;;9.75;;
66593;SDS011;53450;42.584;23.366;2023-04-24T16:47:46;30.70;;;14.07;;
66593;SDS011;53450;42.584;23.366;2023-04-24T16:50:11;25.35;;;14.27;;
66593;SDS011;53450;42.584;23.366;2023-04-24T16:52:37;29.50;;;15.90;;
66593;SDS011;53450;42.584;23.366;2023-04-24T16:55:03;20.55;;;12.73;;
66593;SDS011;53450;42.584;23.366;2023-04-24T16:57:29;46.22;;;20.88;;
66593;SDS011;53450;42.584;23.366;2023-04-24T16:59:55;27.45;;;16.65;;
66593;SDS011;53450;42.584;23.366;2023-04-24T17:02:20;20.50;;;9.68;;
66593;SDS011;53450;42.584;23.366;2023-04-24T17:05:11;9.30;;;6.18;;
66593;SDS011;53450;42.584;23.366;2023-04-24T17:07:37;45.58;;;26.55;;
66593;SDS011;53450;42.584;23.366;2023-04-24T17:10:03;29.10;;;19.75;;
66593;SDS011;53450;42.584;23.366;2023-04-24T17:12:29;28.92;;;20.25;;
66593;SDS011;53450;42.584;23.366;2023-04-24T17:15:19;17.38;;;12.18;;
66593;SDS011;53450;42.584;23.366;2023-04-24T17:17:45;22.85;;;12.35;;
66593;SDS011;53450;42.584;23.366;2023-04-24T17:20:11;19.65;;;14.00;;
66593;SDS011;53450;42.584;23.366;2023-04-24T17:22:37;38.75;;;23.75;;
66593;SDS011;53450;42.584;23.366;2023-04-24T17:25:03;61.13;;;37.65;;
66593;SDS011;53450;42.584;23.366;2023-04-24T17:27:29;74.70;;;42.97;;
66593;SDS011;53450;42.584;23.366;2023-04-24T17:29:54;41.95;;;26.45;;
66593;SDS011;53450;42.584;23.366;2023-04-24T17:32:20;31.77;;;22.60;;
66593;SDS011;53450;42.584;23.366;2023-04-24T17:34:46;49.28;;;39.63;;
66593;SDS011;53450;42.584;23.366;2023-04-24T17:37:13;34.15;;;27.25;;
66593;SDS011;53450;42.584;23.366;2023-04-24T17:39:44;45.35;;;34.92;;
66593;SDS011;53450;42.584;23.366;2023-04-24T17:42:10;21.02;;;15.27;;
66593;SDS011;53450;42.584;23.366;2023-04-24T17:44:35;30.73;;;18.02;;
66593;SDS011;53450;42.584;23.366;2023-04-24T17:47:01;35.58;;;25.45;;
66593;SDS011;53450;42.584;23.366;2023-04-24T17:49:29;14.18;;;10.50;;
66593;SDS011;53450;42.584;23.366;2023-04-24T17:51:55;13.75;;;9.60;;
66593;SDS011;53450;42.584;23.366;2023-04-24T17:54:20;12.30;;;8.38;;
66593;SDS011;53450;42.584;23.366;2023-04-24T17:56:46;31.15;;;17.17;;
66593;SDS011;53450;42.584;23.366;2023-04-24T17:59:12;16.50;;;10.77;;
66593;SDS011;53450;42.584;23.366;2023-04-24T18:01:38;27.33;;;13.50;;
66593;SDS011;53450;42.584;23.366;2023-04-24T18:04:03;56.35;;;30.05;;
66593;SDS011;53450;42.584;23.366;2023-04-24T18:06:29;96.85;;;50.45;;
66593;SDS011;53450;42.584;23.366;2023-04-24T18:08:55;169.52;;;81.55;;
66593;SDS011;53450;42.584;23.366;2023-04-24T18:11:20;94.10;;;46.13;;
66593;SDS011;53450;42.584;23.366;2023-04-24T18:13:46;25.27;;;15.73;;
66593;SDS011;53450;42.584;23.366;2023-04-24T18:16:12;19.67;;;14.05;;
66593;SDS011;53450;42.584;23.366;2023-04-24T18:18:38;14.02;;;9.27;;
66593;SDS011;53450;42.584;23.366;2023-04-24T18:21:04;46.10;;;30.02;;
66593;SDS011;53450;42.584;23.366;2023-04-24T18:23:29;37.97;;;25.27;;
66593;SDS011;53450;42.584;23.366;2023-04-24T18:25:55;44.08;;;26.33;;
66593;SDS011;53450;42.584;23.366;2023-04-24T18:28:21;24.52;;;16.48;;